Time;durP1;ratioP1;P1;durP2;ratioP2;P2;SDS_P1;SDS_P2;PMS_P1;PMS_P2;Temp;Humidity;BMP_temperature;BMP_pressure;BME280_temperature;BME280_humidity;BME280_pressure;Samples;Min_cycle;Max_cycle;Signal;HPM_P1;HPM_P2
2023/03/23 00:00:10;;;;;;;2.43;1.33;;;;;;;;;;5058668;28;20399;-74
2023/03/23 00:02:40;;;;;;;2.03;1.20;;;;;;;;;;5054690;28;20195;-74
2023/03/23 00:05:07;;;;;;;1.30;1.20;;;;;;;;;;5058443;28;20214;-74
2023/03/23 00:07:35;;;;;;;2.23;1.27;;;;;;;;;;5039950;28;20201;-75
2023/03/23 00:10:02;;;;;;;1.43;1.10;;;;;;;;;;5058837;28;20298;-75
2023/03/23 00:12:32;;;;;;;1.57;1.10;;;;;;;;;;5040131;28;20207;-75
2023/03/23 00:15:00;;;;;;;2.00;1.40;;;;;;;;;;5039009;28;20194;-75
2023/03/23 00:17:28;;;;;;;1.10;1.00;;;;;;;;;;5048380;28;20195;-75
2023/03/23 00:19:54;;;;;;;2.27;1.20;;;;;;;;;;5052186;28;20218;-75
2023/03/23 00:22:21;;;;;;;1.27;1.17;;;;;;;;;;5054200;28;20556;-74
2023/03/23 00:24:50;;;;;;;2.70;1.30;;;;;;;;;;5048142;28;20223;-74
2023/03/23 00:27:16;;;;;;;2.07;1.40;;;;;;;;;;5048206;28;20249;-74
2023/03/23 00:29:44;;;;;;;1.53;1.10;;;;;;;;;;5035463;28;20720;-75
2023/03/23 00:32:12;;;;;;;4.10;1.27;;;;;;;;;;5063228;28;20201;-74
2023/03/23 00:34:40;;;;;;;1.20;1.10;;;;;;;;;;5061091;28;20662;-74
2023/03/23 00:37:07;;;;;;;1.20;1.10;;;;;;;;;;5059912;28;20281;-76
2023/03/23 00:39:33;;;;;;;1.43;1.20;;;;;;;;;;5059325;28;20221;-75
2023/03/23 00:42:01;;;;;;;1.27;1.17;;;;;;;;;;5045184;28;20807;-73
2023/03/23 00:44:28;;;;;;;1.63;1.30;;;;;;;;;;5061598;28;20298;-75
2023/03/23 00:46:56;;;;;;;1.43;1.10;;;;;;;;;;5044009;28;20197;-75
2023/03/23 00:49:25;;;;;;;1.17;1.00;;;;;;;;;;5041928;28;20248;-74
2023/03/23 00:51:52;;;;;;;1.40;1.23;;;;;;;;;;5057176;28;20200;-75
2023/03/23 00:54:18;;;;;;;1.20;1.10;;;;;;;;;;5063348;28;20556;-74
2023/03/23 00:56:44;;;;;;;2.40;1.20;;;;;;;;;;5041635;28;20228;-75
2023/03/23 00:59:12;;;;;;;1.00;1.00;;;;;;;;;;5048532;28;20603;-75
2023/03/23 01:01:38;;;;;;;0.80;0.80;;;;;;;;;;5041019;28;20914;-76
2023/03/23 01:04:05;;;;;;;1.20;1.10;;;;;;;;;;5046168;28;20600;-75
2023/03/23 01:06:34;;;;;;;1.13;1.03;;;;;;;;;;5054719;28;20210;-74
2023/03/23 01:09:03;;;;;;;1.40;1.30;;;;;;;;;;5060502;28;20681;-74
2023/03/23 01:11:29;;;;;;;1.07;1.00;;;;;;;;;;5044065;28;20717;-74
2023/03/23 01:13:56;;;;;;;1.40;1.27;;;;;;;;;;5041888;28;20211;-74
2023/03/23 01:16:23;;;;;;;1.37;1.20;;;;;;;;;;5041766;28;20207;-73
2023/03/23 01:18:50;;;;;;;1.00;1.00;;;;;;;;;;5060155;28;20236;-74
2023/03/23 01:21:17;;;;;;;1.33;1.23;;;;;;;;;;5044251;28;20269;-74
2023/03/23 01:23:43;;;;;;;2.03;1.20;;;;;;;;;;5058646;28;20661;-74
2023/03/23 01:26:11;;;;;;;1.27;1.17;;;;;;;;;;5039331;28;20617;-73
2023/03/23 01:28:38;;;;;;;1.70;1.17;;;;;;;;;;5040771;28;20232;-75
2023/03/23 01:31:05;;;;;;;3.90;1.20;;;;;;;;;;5061342;28;20208;-74
2023/03/23 01:33:33;;;;;;;1.47;1.10;;;;;;;;;;5038335;28;20190;-74
2023/03/23 01:36:03;;;;;;;2.13;1.27;;;;;;;;;;5038114;28;20196;-74
2023/03/23 01:38:30;;;;;;;1.13;1.03;;;;;;;;;;5037421;28;20221;-74
2023/03/23 01:40:57;;;;;;;1.47;1.30;;;;;;;;;;5039649;28;20237;-74
2023/03/23 01:43:23;;;;;;;2.13;1.10;;;;;;;;;;5037144;28;20716;-74
2023/03/23 01:45:49;;;;;;;1.23;1.13;;;;;;;;;;5054555;28;20245;-75
2023/03/23 01:48:17;;;;;;;2.90;1.20;;;;;;;;;;5045252;28;20218;-75
2023/03/23 01:50:49;;;;;;;1.80;1.47;;;;;;;;;;5054918;28;20198;-75
2023/03/23 01:53:16;;;;;;;5.37;1.40;;;;;;;;;;5041485;28;20271;-75
2023/03/23 01:55:43;;;;;;;2.53;1.70;;;;;;;;;;5035405;28;20204;-75
2023/03/23 01:58:11;;;;;;;1.73;1.20;;;;;;;;;;5039864;28;20663;-75
2023/03/23 02:00:40;;;;;;;1.30;1.07;;;;;;;;;;5033012;28;20202;-75
2023/03/23 02:03:08;;;;;;;1.30;1.20;;;;;;;;;;5052523;28;20211;-75
2023/03/23 02:05:37;;;;;;;1.80;1.43;;;;;;;;;;5039731;28;20611;-75
2023/03/23 02:08:18;;;;;;;3.17;1.17;;;;;;;;;;5035264;28;20218;-75
2023/03/23 02:10:45;;;;;;;1.37;1.23;;;;;;;;;;5037650;28;20215;-75
2023/03/23 02:13:12;;;;;;;1.63;1.20;;;;;;;;;;5037092;28;20510;-75
2023/03/23 02:15:43;;;;;;;1.63;1.20;;;;;;;;;;5039550;28;20253;-75
2023/03/23 02:18:14;;;;;;;1.23;1.10;;;;;;;;;;5040986;28;20427;-75
2023/03/23 02:20:57;;;;;;;1.67;1.20;;;;;;;;;;5053866;28;20200;-75
2023/03/23 02:23:36;;;;;;;1.57;1.27;;;;;;;;;;5037878;28;20221;-75
2023/03/23 02:26:10;;;;;;;1.50;1.30;;;;;;;;;;5030697;28;20531;-75
2023/03/23 02:28:47;;;;;;;1.80;1.30;;;;;;;;;;5057268;28;20229;-75
2023/03/23 02:31:38;;;;;;;1.47;1.20;;;;;;;;;;5038692;28;20708;-75
2023/03/23 02:34:06;;;;;;;1.23;1.13;;;;;;;;;;5033714;28;20205;-74
2023/03/23 02:36:35;;;;;;;1.40;1.13;;;;;;;;;;5053894;28;20281;-75
2023/03/23 02:39:05;;;;;;;1.13;1.00;;;;;;;;;;5034392;28;20309;-74
2023/03/23 02:41:33;;;;;;;3.13;1.17;;;;;;;;;;5041016;28;20315;-75
2023/03/23 02:44:00;;;;;;;1.10;1.00;;;;;;;;;;5037635;28;20204;-75
2023/03/23 02:46:29;;;;;;;3.03;1.17;;;;;;;;;;5038870;28;20215;-75
2023/03/23 02:48:57;;;;;;;1.03;0.97;;;;;;;;;;5035741;28;20226;-75
2023/03/23 02:51:25;;;;;;;1.20;1.10;;;;;;;;;;5040730;28;21114;-75
2023/03/23 02:53:52;;;;;;;2.90;1.20;;;;;;;;;;5060659;28;20203;-75
2023/03/23 02:56:19;;;;;;;2.30;1.33;;;;;;;;;;5054549;28;20200;-75
2023/03/23 02:58:45;;;;;;;1.53;1.10;;;;;;;;;;5039015;28;20370;-75
2023/03/23 03:01:36;;;;;;;2.70;1.30;;;;;;;;;;5034263;28;20204;-75
2023/03/23 03:04:05;;;;;;;1.13;1.00;;;;;;;;;;5057003;28;20206;-75
2023/03/23 03:06:35;;;;;;;1.50;1.13;;;;;;;;;;5038699;28;20219;-74
2023/03/23 03:09:06;;;;;;;2.90;1.43;;;;;;;;;;5037260;28;20248;-75
2023/03/23 03:11:34;;;;;;;1.30;1.13;;;;;;;;;;5041669;28;20689;-75
2023/03/23 03:14:03;;;;;;;1.33;1.00;;;;;;;;;;5039239;28;20217;-74
2023/03/23 03:16:34;;;;;;;1.37;1.03;;;;;;;;;;5054494;28;20182;-75
2023/03/23 03:19:03;;;;;;;1.00;0.90;;;;;;;;;;5041403;28;20415;-74
2023/03/23 03:21:31;;;;;;;2.53;1.13;;;;;;;;;;5039977;28;20502;-75
2023/03/23 03:24:01;;;;;;;1.20;1.10;;;;;;;;;;5037657;28;20221;-74
2023/03/23 03:26:30;;;;;;;1.00;0.90;;;;;;;;;;5040909;28;20264;-75
2023/03/23 03:29:02;;;;;;;2.40;1.00;;;;;;;;;;5040481;28;20240;-75
2023/03/23 03:31:29;;;;;;;1.17;1.00;;;;;;;;;;5038783;28;20201;-75
2023/03/23 03:33:56;;;;;;;2.03;1.17;;;;;;;;;;5038191;28;20204;-75
2023/03/23 03:36:25;;;;;;;1.47;1.20;;;;;;;;;;5042824;28;20253;-75
2023/03/23 03:38:53;;;;;;;1.60;1.10;;;;;;;;;;5055590;28;20292;-75
2023/03/23 03:41:21;;;;;;;1.87;1.03;;;;;;;;;;5055891;28;20220;-75
2023/03/23 03:43:48;;;;;;;2.33;1.20;;;;;;;;;;5041287;28;20196;-74
2023/03/23 03:46:14;;;;;;;1.33;1.10;;;;;;;;;;5041010;28;20514;-75
2023/03/23 03:48:40;;;;;;;1.00;0.93;;;;;;;;;;5042562;28;20229;-75
2023/03/23 03:51:08;;;;;;;1.33;1.23;;;;;;;;;;5038039;28;20242;-75
2023/03/23 03:53:37;;;;;;;1.97;1.20;;;;;;;;;;5042737;28;20196;-74
2023/03/23 03:56:05;;;;;;;1.97;0.73;;;;;;;;;;5036863;28;20690;-75
2023/03/23 03:58:38;;;;;;;1.10;1.00;;;;;;;;;;5036050;28;20208;-74
2023/03/23 04:01:05;;;;;;;0.80;0.80;;;;;;;;;;5049144;28;20596;-75
2023/03/23 04:03:36;;;;;;;1.70;1.40;;;;;;;;;;5036205;28;20214;-75
2023/03/23 04:06:07;;;;;;;1.07;0.97;;;;;;;;;;5039326;28;20506;-75
2023/03/23 04:08:35;;;;;;;4.07;1.20;;;;;;;;;;5038864;28;20234;-75
2023/03/23 04:11:01;;;;;;;1.43;0.80;;;;;;;;;;5039463;28;20221;-75
2023/03/23 04:13:30;;;;;;;0.80;0.70;;;;;;;;;;5041474;28;20390;-75
2023/03/23 04:16:07;;;;;;;1.23;0.83;;;;;;;;;;5039887;28;20305;-75
2023/03/23 04:18:34;;;;;;;1.20;1.10;;;;;;;;;;5061022;28;20279;-75
2023/03/23 04:21:01;;;;;;;1.57;1.20;;;;;;;;;;5044193;28;20207;-75
2023/03/23 04:23:30;;;;;;;1.80;1.50;;;;;;;;;;5042415;28;20284;-74
2023/03/23 04:25:59;;;;;;;2.80;2.00;;;;;;;;;;5040885;28;20298;-75
2023/03/23 04:28:33;;;;;;;1.90;1.47;;;;;;;;;;5039299;28;20229;-75
2023/03/23 04:31:36;;;;;;;1.17;0.90;;;;;;;;;;5061240;28;20199;-74
2023/03/23 04:34:14;;;;;;;1.00;0.90;;;;;;;;;;5039134;28;20210;-75
2023/03/23 04:36:46;;;;;;;1.50;0.87;;;;;;;;;;5043097;28;20204;-75
2023/03/23 04:39:16;;;;;;;1.27;1.10;;;;;;;;;;5040260;28;20226;-75
2023/03/23 04:41:44;;;;;;;1.53;0.90;;;;;;;;;;5045500;28;20209;-75
2023/03/23 04:44:53;;;;;;;1.37;0.90;;;;;;;;;;5042528;28;20200;-74
2023/03/23 04:47:21;;;;;;;3.33;0.90;;;;;;;;;;5039908;28;20213;-74
2023/03/23 04:49:54;;;;;;;1.10;1.00;;;;;;;;;;5058930;28;20211;-75
2023/03/23 04:52:28;;;;;;;0.93;0.90;;;;;;;;;;5042069;28;20637;-75
2023/03/23 04:54:57;;;;;;;2.90;1.13;;;;;;;;;;5040536;28;20206;-75
2023/03/23 04:57:27;;;;;;;1.13;0.90;;;;;;;;;;5039873;28;20438;-75
2023/03/23 05:00:16;;;;;;;0.80;0.80;;;;;;;;;;5059537;28;20212;-75
2023/03/23 05:02:51;;;;;;;0.83;0.83;;;;;;;;;;5049513;28;21297;-75
2023/03/23 05:05:18;;;;;;;0.70;0.70;;;;;;;;;;5041408;28;20244;-75
2023/03/23 05:07:44;;;;;;;0.70;0.70;;;;;;;;;;5053535;28;20198;-75
2023/03/23 05:10:13;;;;;;;0.70;0.70;;;;;;;;;;5034536;28;20286;-75
2023/03/23 05:12:40;;;;;;;1.33;0.70;;;;;;;;;;5036834;28;20198;-75
2023/03/23 05:15:10;;;;;;;1.00;0.90;;;;;;;;;;5042968;28;20228;-75
2023/03/23 05:17:36;;;;;;;0.97;0.90;;;;;;;;;;5038968;28;20677;-75
2023/03/23 05:20:14;;;;;;;0.80;0.80;;;;;;;;;;5038485;28;20307;-75
2023/03/23 05:22:44;;;;;;;0.80;0.80;;;;;;;;;;5058622;28;20197;-75
2023/03/23 05:25:13;;;;;;;1.10;1.00;;;;;;;;;;5038795;28;20237;-75
2023/03/23 05:27:48;;;;;;;0.80;0.73;;;;;;;;;;5036045;28;20198;-75
2023/03/23 05:30:27;;;;;;;0.77;0.77;;;;;;;;;;5040327;28;20201;-75
2023/03/23 05:32:54;;;;;;;4.73;1.00;;;;;;;;;;5039061;28;20210;-75
2023/03/23 05:35:42;;;;;;;1.53;0.73;;;;;;;;;;5038862;28;20220;-75
2023/03/23 05:38:09;;;;;;;1.27;0.80;;;;;;;;;;5051999;28;20210;-75
2023/03/23 05:40:37;;;;;;;1.40;0.90;;;;;;;;;;5034586;28;20197;-75
2023/03/23 05:43:11;;;;;;;3.20;1.07;;;;;;;;;;5038046;28;20220;-75
2023/03/23 05:45:55;;;;;;;1.10;0.83;;;;;;;;;;5034226;28;20542;-75
2023/03/23 05:48:21;;;;;;;1.67;0.97;;;;;;;;;;5035018;28;20245;-75
2023/03/23 05:50:50;;;;;;;1.00;0.80;;;;;;;;;;5050538;28;20208;-75
2023/03/23 05:53:17;;;;;;;2.43;1.10;;;;;;;;;;5049889;28;20676;-75
2023/03/23 05:55:43;;;;;;;2.60;1.07;;;;;;;;;;5030595;28;20198;-75
2023/03/23 05:58:20;;;;;;;1.73;1.17;;;;;;;;;;5033602;28;20420;-75
2023/03/23 06:00:47;;;;;;;1.10;1.00;;;;;;;;;;5035567;28;20230;-75
2023/03/23 06:03:20;;;;;;;0.73;0.73;;;;;;;;;;5041217;28;20234;-75
2023/03/23 06:05:56;;;;;;;1.70;1.00;;;;;;;;;;5039066;28;20291;-75
2023/03/23 06:08:30;;;;;;;1.10;0.90;;;;;;;;;;5060510;28;20486;-75
2023/03/23 06:10:57;;;;;;;0.90;0.90;;;;;;;;;;5032581;28;20203;-75
2023/03/23 06:13:24;;;;;;;1.00;1.00;;;;;;;;;;5035760;28;20204;-75
2023/03/23 06:15:57;;;;;;;1.03;0.83;;;;;;;;;;5040311;28;20407;-75
2023/03/23 06:18:43;;;;;;;0.97;0.90;;;;;;;;;;5046297;28;20708;-75
2023/03/23 06:21:19;;;;;;;2.57;0.97;;;;;;;;;;5041282;28;20194;-75
2023/03/23 06:23:50;;;;;;;1.33;0.90;;;;;;;;;;5039546;28;20203;-75
2023/03/23 06:26:19;;;;;;;0.80;0.80;;;;;;;;;;5053772;28;20449;-75
2023/03/23 06:28:51;;;;;;;1.33;0.90;;;;;;;;;;5025735;28;20219;-75
2023/03/23 06:31:20;;;;;;;1.57;1.03;;;;;;;;;;5073073;22;20231;-71
2023/03/23 06:33:48;;;;;;;2.10;1.00;;;;;;;;;;5059501;28;20683;-71
2023/03/23 06:36:28;;;;;;;1.93;0.97;;;;;;;;;;5079704;28;20228;-70
2023/03/23 06:39:04;;;;;;;1.63;0.90;;;;;;;;;;5058320;28;20201;-73
2023/03/23 06:41:48;;;;;;;1.20;0.80;;;;;;;;;;5059841;28;20197;-70
2023/03/23 06:44:14;;;;;;;1.03;0.83;;;;;;;;;;5078759;28;20242;-69
2023/03/23 06:46:41;;;;;;;1.70;1.00;;;;;;;;;;5065198;28;20304;-70
2023/03/23 06:49:29;;;;;;;1.00;0.90;;;;;;;;;;5063550;28;20199;-69
2023/03/23 06:52:06;;;;;;;0.97;0.83;;;;;;;;;;5061657;28;20193;-70
2023/03/23 06:54:33;;;;;;;0.97;0.87;;;;;;;;;;5058939;28;20208;-71
2023/03/23 06:57:01;;;;;;;1.43;0.93;;;;;;;;;;5056304;28;20874;-70
2023/03/23 06:59:28;;;;;;;3.67;1.00;;;;;;;;;;5059072;28;20202;-71
2023/03/23 07:01:55;;;;;;;1.10;1.00;;;;;;;;;;5056164;28;20570;-71
2023/03/23 07:04:23;;;;;;;2.40;0.90;;;;;;;;;;5072364;28;20676;-70
2023/03/23 07:06:57;;;;;;;2.03;0.93;;;;;;;;;;5010734;23;20234;-73
2023/03/23 07:09:25;;;;;;;1.77;1.00;;;;;;;;;;5001273;28;20291;-73
2023/03/23 07:11:52;;;;;;;1.10;1.00;;;;;;;;;;4997192;28;20220;-74
2023/03/23 07:14:28;;;;;;;0.67;0.67;;;;;;;;;;4993999;28;20220;-73
2023/03/23 07:16:54;;;;;;;1.50;1.10;;;;;;;;;;4987772;28;20480;-73
2023/03/23 07:19:21;;;;;;;1.50;0.97;;;;;;;;;;4989369;28;20289;-73
2023/03/23 07:21:47;;;;;;;1.53;1.10;;;;;;;;;;4989860;28;20606;-73
2023/03/23 07:24:14;;;;;;;1.17;0.83;;;;;;;;;;5001162;28;20210;-73
2023/03/23 07:26:57;;;;;;;1.73;0.90;;;;;;;;;;5004111;28;20218;-73
2023/03/23 07:29:24;;;;;;;1.87;0.90;;;;;;;;;;5004335;28;20246;-73
2023/03/23 07:32:01;;;;;;;1.17;0.90;;;;;;;;;;4997092;28;20197;-73
2023/03/23 07:34:28;;;;;;;1.67;0.80;;;;;;;;;;5003178;28;20211;-74
2023/03/23 07:37:05;;;;;;;2.47;0.90;;;;;;;;;;5092499;28;21022;-74
2023/03/23 07:39:34;;;;;;;2.47;1.00;;;;;;;;;;5001594;28;20257;-74
2023/03/23 07:42:07;;;;;;;0.90;0.77;;;;;;;;;;5002421;28;20632;-74
2023/03/23 07:44:48;;;;;;;1.10;0.80;;;;;;;;;;5031615;28;20211;-73
2023/03/23 07:47:15;;;;;;;1.13;1.03;;;;;;;;;;5015756;28;20244;-73
2023/03/23 07:49:42;;;;;;;1.27;1.00;;;;;;;;;;5011908;28;20207;-75
2023/03/23 07:52:21;;;;;;;1.60;1.13;;;;;;;;;;4994679;28;20192;-73
2023/03/23 07:54:48;;;;;;;1.13;0.90;;;;;;;;;;5022044;28;20282;-73
2023/03/23 07:57:22;;;;;;;1.93;0.93;;;;;;;;;;4998345;28;20197;-71
2023/03/23 07:59:52;;;;;;;1.10;0.90;;;;;;;;;;5001133;28;20312;-74
2023/03/23 08:02:18;;;;;;;4.27;1.50;;;;;;;;;;4997622;28;20232;-73
2023/03/23 08:04:47;;;;;;;3.87;2.73;;;;;;;;;;5026132;28;20227;-74
2023/03/23 08:07:49;;;;;;;1.40;1.07;;;;;;;;;;5018828;28;20219;-74
2023/03/23 08:10:37;;;;;;;1.40;1.17;;;;;;;;;;5003452;28;20299;-71
2023/03/23 08:13:42;;;;;;;3.87;3.00;;;;;;;;;;5012640;28;20676;-73
2023/03/23 08:16:29;;;;;;;1.77;1.20;;;;;;;;;;5079935;28;20432;-74
2023/03/23 08:19:08;;;;;;;2.60;1.40;;;;;;;;;;5024548;28;20201;-74
2023/03/23 08:21:57;;;;;;;3.17;1.43;;;;;;;;;;5019199;28;20204;-74
2023/03/23 08:24:53;;;;;;;13.60;7.53;;;;;;;;;;5049729;28;20219;-74
2023/03/23 08:27:43;;;;;;;3.03;2.00;;;;;;;;;;5015022;28;20463;-75
2023/03/23 08:30:33;;;;;;;2.40;1.90;;;;;;;;;;5008848;28;20208;-74
2023/03/23 08:33:14;;;;;;;1.80;1.50;;;;;;;;;;5021537;28;20203;-74
2023/03/23 08:36:04;;;;;;;3.10;1.40;;;;;;;;;;5018898;28;20220;-73
2023/03/23 08:38:56;;;;;;;1.53;1.40;;;;;;;;;;4999988;28;20216;-74
2023/03/23 08:41:35;;;;;;;1.87;1.67;;;;;;;;;;5022625;28;20254;-74
2023/03/23 08:44:15;;;;;;;2.13;1.63;;;;;;;;;;5016406;28;20213;-74
2023/03/23 08:47:10;;;;;;;1.83;1.53;;;;;;;;;;4998535;28;20225;-72
2023/03/23 08:49:55;;;;;;;3.70;1.53;;;;;;;;;;5018399;28;20203;-74
2023/03/23 08:52:30;;;;;;;2.20;1.70;;;;;;;;;;5017536;28;20210;-73
2023/03/23 08:55:20;;;;;;;2.23;1.80;;;;;;;;;;5027298;28;20232;-73
2023/03/23 08:57:54;;;;;;;3.00;1.57;;;;;;;;;;5004596;28;20188;-73
2023/03/23 09:00:34;;;;;;;5.33;1.50;;;;;;;;;;5034588;28;20272;-75
2023/03/23 09:03:17;;;;;;;1.67;1.30;;;;;;;;;;4995307;28;20219;-74
2023/03/23 09:06:01;;;;;;;1.83;1.30;;;;;;;;;;5004144;28;20233;-74
2023/03/23 09:08:44;;;;;;;2.03;1.33;;;;;;;;;;5023557;28;20609;-73
2023/03/23 09:11:10;;;;;;;1.83;1.63;;;;;;;;;;5016483;28;20200;-71
2023/03/23 09:13:38;;;;;;;2.50;1.60;;;;;;;;;;5014803;28;20735;-71
2023/03/23 09:16:04;;;;;;;1.63;1.33;;;;;;;;;;5031278;28;20633;-73
2023/03/23 09:18:33;;;;;;;2.93;1.40;;;;;;;;;;5028139;28;20192;-73
2023/03/23 09:20:59;;;;;;;1.30;1.20;;;;;;;;;;5013631;28;20431;-74
2023/03/23 09:23:28;;;;;;;1.73;1.40;;;;;;;;;;5008549;28;20196;-73
2023/03/23 09:25:54;;;;;;;2.33;1.60;;;;;;;;;;5009779;28;20323;-71
2023/03/23 09:28:21;;;;;;;1.90;1.40;;;;;;;;;;5034411;28;20231;-70
2023/03/23 09:30:47;;;;;;;1.50;1.30;;;;;;;;;;5015557;28;20257;-73
2023/03/23 09:33:14;;;;;;;2.33;1.53;;;;;;;;;;5012424;28;20207;-73
2023/03/23 09:35:42;;;;;;;1.70;1.60;;;;;;;;;;5015290;28;20220;-73
2023/03/23 09:38:12;;;;;;;1.40;1.30;;;;;;;;;;4996943;28;20204;-73
2023/03/23 09:40:46;;;;;;;3.40;1.40;;;;;;;;;;5022024;28;20748;-72
2023/03/23 09:43:23;;;;;;;2.00;1.60;;;;;;;;;;5019680;28;20201;-72
2023/03/23 09:45:52;;;;;;;2.20;1.70;;;;;;;;;;5022884;28;20784;-73
2023/03/23 09:48:28;;;;;;;1.57;1.43;;;;;;;;;;5019809;28;20215;-73
2023/03/23 09:51:01;;;;;;;1.87;1.37;;;;;;;;;;5017586;28;20191;-71
2023/03/23 09:53:34;;;;;;;2.03;1.57;;;;;;;;;;5099120;28;20381;-74
2023/03/23 09:56:01;;;;;;;1.47;1.30;;;;;;;;;;5017237;28;20228;-73
2023/03/23 09:58:29;;;;;;;1.30;1.10;;;;;;;;;;4997931;28;20216;-73
2023/03/23 10:00:58;;;;;;;2.13;1.30;;;;;;;;;;5023449;28;20204;-74
2023/03/23 10:03:27;;;;;;;1.53;1.43;;;;;;;;;;5021094;28;20211;-71
2023/03/23 10:05:55;;;;;;;1.70;1.17;;;;;;;;;;5019142;28;20788;-74
2023/03/23 10:08:24;;;;;;;3.40;1.70;;;;;;;;;;5092689;28;20564;-74
2023/03/23 10:10:55;;;;;;;2.77;1.90;;;;;;;;;;5042677;28;20228;-73
2023/03/23 10:13:27;;;;;;;2.10;1.50;;;;;;;;;;5013923;28;20202;-73
2023/03/23 10:15:55;;;;;;;2.30;1.87;;;;;;;;;;5019679;28;20219;-75
2023/03/23 10:18:24;;;;;;;2.43;1.60;;;;;;;;;;5016954;28;20220;-71
2023/03/23 10:20:54;;;;;;;1.87;1.57;;;;;;;;;;5015340;28;20204;-74
2023/03/23 10:23:38;;;;;;;2.07;1.87;;;;;;;;;;5010586;28;20207;-73
2023/03/23 10:26:21;;;;;;;1.90;1.40;;;;;;;;;;5010381;28;20327;-71
2023/03/23 10:28:52;;;;;;;3.27;1.67;;;;;;;;;;5004611;28;20250;-73
2023/03/23 10:31:21;;;;;;;2.20;1.80;;;;;;;;;;5016740;28;20197;-73
2023/03/23 10:33:48;;;;;;;1.73;1.43;;;;;;;;;;4999543;28;20610;-74
2023/03/23 10:36:17;;;;;;;1.77;1.50;;;;;;;;;;5013921;28;20243;-74
2023/03/23 10:38:46;;;;;;;2.40;1.70;;;;;;;;;;5020663;28;20203;-74
2023/03/23 10:41:14;;;;;;;4.27;1.33;;;;;;;;;;5008665;28;20211;-73
2023/03/23 10:43:41;;;;;;;2.17;1.73;;;;;;;;;;5034814;28;20207;-73
2023/03/23 10:46:14;;;;;;;3.60;1.60;;;;;;;;;;5003087;28;20228;-74
2023/03/23 10:48:40;;;;;;;1.40;1.23;;;;;;;;;;5024561;28;20213;-74
2023/03/23 10:51:10;;;;;;;2.20;1.50;;;;;;;;;;5015087;28;20208;-73
2023/03/23 10:53:38;;;;;;;1.23;1.10;;;;;;;;;;5073101;28;20280;-73
2023/03/23 10:56:20;;;;;;;1.67;1.17;;;;;;;;;;5010670;28;20223;-74
2023/03/23 10:58:47;;;;;;;2.80;1.63;;;;;;;;;;5021063;28;20201;-74
2023/03/23 11:01:13;;;;;;;2.23;1.43;;;;;;;;;;5018922;28;20204;-74
2023/03/23 11:03:42;;;;;;;1.87;1.30;;;;;;;;;;5003556;28;20318;-73
2023/03/23 11:06:10;;;;;;;1.77;1.23;;;;;;;;;;5015291;28;20644;-73
2023/03/23 11:08:38;;;;;;;2.23;1.20;;;;;;;;;;5014667;28;20233;-74
2023/03/23 11:11:10;;;;;;;1.60;1.10;;;;;;;;;;5002606;28;20212;-74
2023/03/23 11:13:40;;;;;;;1.53;1.23;;;;;;;;;;5018423;28;20193;-74
2023/03/23 11:16:09;;;;;;;1.87;1.30;;;;;;;;;;5010825;28;20294;-74
2023/03/23 11:18:36;;;;;;;1.10;1.00;;;;;;;;;;5009454;28;20633;-74
2023/03/23 11:21:05;;;;;;;2.03;1.03;;;;;;;;;;5015761;28;20219;-74
2023/03/23 11:23:33;;;;;;;0.93;0.90;;;;;;;;;;5018421;28;20196;-71
2023/03/23 11:26:09;;;;;;;1.23;1.00;;;;;;;;;;5035383;28;20281;-72
2023/03/23 11:28:38;;;;;;;1.77;1.20;;;;;;;;;;5016401;28;20235;-72
2023/03/23 11:31:06;;;;;;;1.20;1.03;;;;;;;;;;5030257;28;20193;-73
2023/03/23 11:33:37;;;;;;;1.10;1.00;;;;;;;;;;5009027;28;20245;-73
2023/03/23 11:36:03;;;;;;;1.43;1.00;;;;;;;;;;5000386;28;20228;-73
2023/03/23 11:38:30;;;;;;;2.47;1.20;;;;;;;;;;4998198;28;20201;-72
2023/03/23 11:40:58;;;;;;;2.03;1.13;;;;;;;;;;5031897;28;20226;-73
2023/03/23 11:43:26;;;;;;;2.47;1.03;;;;;;;;;;5007371;28;20807;-74
2023/03/23 11:45:59;;;;;;;3.50;1.00;;;;;;;;;;5000123;28;20231;-72
2023/03/23 11:48:28;;;;;;;1.77;1.20;;;;;;;;;;5017310;28;20598;-73
2023/03/23 11:50:58;;;;;;;2.37;1.50;;;;;;;;;;5022331;28;20201;-74
2023/03/23 11:53:28;;;;;;;3.27;1.23;;;;;;;;;;5023064;28;20202;-73
2023/03/23 11:55:59;;;;;;;2.43;1.50;;;;;;;;;;5019173;28;20212;-73
2023/03/23 11:58:32;;;;;;;1.40;1.30;;;;;;;;;;5011335;28;20203;-74
2023/03/23 12:01:04;;;;;;;1.10;1.00;;;;;;;;;;5016726;28;20260;-73
2023/03/23 12:03:47;;;;;;;2.03;1.70;;;;;;;;;;5019557;28;20246;-72
2023/03/23 12:06:16;;;;;;;1.87;1.50;;;;;;;;;;5019807;28;20555;-72
2023/03/23 12:08:52;;;;;;;1.17;1.03;;;;;;;;;;5001533;28;20259;-74
2023/03/23 12:11:23;;;;;;;1.53;1.03;;;;;;;;;;5017270;28;20204;-73
2023/03/23 12:13:55;;;;;;;1.70;1.10;;;;;;;;;;5096079;28;20205;-74
2023/03/23 12:16:30;;;;;;;1.37;1.10;;;;;;;;;;5031114;28;20204;-73
2023/03/23 12:18:59;;;;;;;1.20;0.90;;;;;;;;;;5025989;28;20195;-74
2023/03/23 12:21:30;;;;;;;2.00;1.50;;;;;;;;;;5018683;28;20193;-72
2023/03/23 12:24:03;;;;;;;2.37;1.30;;;;;;;;;;5020336;28;20224;-73
2023/03/23 12:26:31;;;;;;;2.47;1.27;;;;;;;;;;5020008;28;20220;-72
2023/03/23 12:29:04;;;;;;;1.70;1.20;;;;;;;;;;5031765;28;20234;-75
2023/03/23 12:31:36;;;;;;;1.40;1.20;;;;;;;;;;5020138;28;20197;-75
2023/03/23 12:34:05;;;;;;;2.57;1.17;;;;;;;;;;5019551;28;20394;-71
2023/03/23 12:36:38;;;;;;;1.50;1.23;;;;;;;;;;5019423;28;20225;-74
2023/03/23 12:39:15;;;;;;;2.00;1.20;;;;;;;;;;5016935;28;20224;-71
2023/03/23 12:41:47;;;;;;;1.73;1.10;;;;;;;;;;5095777;28;20732;-74
2023/03/23 12:44:14;;;;;;;1.40;1.10;;;;;;;;;;5013266;28;20196;-75
2023/03/23 12:46:50;;;;;;;1.10;1.00;;;;;;;;;;5014333;28;20319;-74
2023/03/23 12:49:18;;;;;;;0.87;0.87;;;;;;;;;;5022312;28;20219;-73
2023/03/23 12:51:48;;;;;;;1.60;1.40;;;;;;;;;;5014573;28;20192;-72
2023/03/23 12:54:19;;;;;;;1.47;1.00;;;;;;;;;;5013258;28;20236;-75
2023/03/23 12:56:48;;;;;;;1.33;1.03;;;;;;;;;;5019888;28;20315;-71
2023/03/23 12:59:20;;;;;;;1.10;0.90;;;;;;;;;;5019938;28;20248;-74
2023/03/23 13:01:49;;;;;;;1.60;1.10;;;;;;;;;;5012326;28;20216;-75
2023/03/23 13:04:17;;;;;;;1.43;0.80;;;;;;;;;;5024435;28;20688;-73
2023/03/23 13:06:45;;;;;;;1.10;1.00;;;;;;;;;;5073351;23;20233;-72
2023/03/23 13:09:14;;;;;;;1.10;1.00;;;;;;;;;;5068812;28;20222;-72
2023/03/23 13:11:42;;;;;;;0.80;0.77;;;;;;;;;;5083842;28;20202;-72
2023/03/23 13:14:26;;;;;;;4.07;0.97;;;;;;;;;;5070220;28;20213;-72
2023/03/23 13:16:56;;;;;;;0.83;0.83;;;;;;;;;;5069223;28;20226;-73
2023/03/23 13:19:26;;;;;;;2.33;1.57;;;;;;;;;;5069131;28;20195;-73
2023/03/23 13:21:58;;;;;;;2.03;1.63;;;;;;;;;;5072852;28;20555;-73
2023/03/23 13:24:27;;;;;;;1.93;1.40;;;;;;;;;;5065246;28;20289;-73
2023/03/23 13:26:55;;;;;;;2.17;1.50;;;;;;;;;;5073077;28;20214;-73
2023/03/23 13:29:24;;;;;;;1.77;1.40;;;;;;;;;;5062759;28;20840;-72
2023/03/23 13:31:51;;;;;;;2.30;1.67;;;;;;;;;;5063316;28;20718;-73
2023/03/23 13:34:19;;;;;;;1.30;0.90;;;;;;;;;;5070995;28;20209;-73
2023/03/23 13:36:55;;;;;;;3.13;1.00;;;;;;;;;;5069309;28;20222;-73
2023/03/23 13:39:25;;;;;;;2.57;1.10;;;;;;;;;;5066939;28;20669;-73
2023/03/23 13:42:00;;;;;;;1.40;1.10;;;;;;;;;;5070641;28;20576;-73
2023/03/23 13:44:39;;;;;;;2.77;1.20;;;;;;;;;;5048545;28;20212;-73
2023/03/23 13:47:08;;;;;;;1.17;1.07;;;;;;;;;;5065879;28;20226;-73
2023/03/23 13:49:45;;;;;;;1.40;0.90;;;;;;;;;;5067684;28;20214;-73
2023/03/23 13:52:17;;;;;;;3.10;1.00;;;;;;;;;;5050386;28;20635;-72
2023/03/23 13:54:45;;;;;;;1.50;1.17;;;;;;;;;;5067721;28;20601;-73
2023/03/23 13:57:22;;;;;;;0.80;0.80;;;;;;;;;;5059640;28;20782;-73
2023/03/23 13:59:49;;;;;;;1.37;0.97;;;;;;;;;;5064370;28;20244;-73
2023/03/23 14:02:30;;;;;;;1.10;1.00;;;;;;;;;;5064720;28;20202;-73
2023/03/23 14:05:08;;;;;;;2.50;1.30;;;;;;;;;;5067205;28;20209;-72
2023/03/23 14:07:49;;;;;;;1.87;1.03;;;;;;;;;;5065456;28;20655;-72
2023/03/23 14:10:16;;;;;;;1.63;1.20;;;;;;;;;;5069735;28;20217;-72
2023/03/23 14:12:46;;;;;;;1.80;1.30;;;;;;;;;;5065745;28;20218;-72
2023/03/23 14:15:12;;;;;;;1.47;1.23;;;;;;;;;;5061437;28;20207;-72
2023/03/23 14:17:42;;;;;;;1.10;1.00;;;;;;;;;;5068134;28;20218;-72
2023/03/23 14:20:20;;;;;;;1.23;1.13;;;;;;;;;;5045149;28;20301;-72
2023/03/23 14:22:46;;;;;;;1.63;0.97;;;;;;;;;;5064791;28;20287;-72
2023/03/23 14:25:13;;;;;;;1.47;1.20;;;;;;;;;;5062818;28;20540;-72
2023/03/23 14:27:41;;;;;;;1.87;1.23;;;;;;;;;;5064014;28;20284;-72
2023/03/23 14:30:09;;;;;;;1.30;0.90;;;;;;;;;;5067992;28;20696;-73
2023/03/23 14:32:35;;;;;;;1.27;1.10;;;;;;;;;;5064060;28;20212;-72
2023/03/23 14:35:06;;;;;;;1.20;1.07;;;;;;;;;;5068197;28;20198;-72
2023/03/23 14:37:35;;;;;;;3.07;1.27;;;;;;;;;;5069060;28;20226;-73
2023/03/23 14:40:04;;;;;;;1.33;1.10;;;;;;;;;;5068991;28;20206;-72
2023/03/23 14:42:32;;;;;;;1.13;1.03;;;;;;;;;;5069211;28;20604;-72
2023/03/23 14:45:00;;;;;;;1.20;1.00;;;;;;;;;;5068016;28;20589;-73
2023/03/23 14:47:27;;;;;;;2.30;1.13;;;;;;;;;;5065579;28;20428;-72
2023/03/23 14:49:55;;;;;;;1.77;1.20;;;;;;;;;;5059810;28;20225;-73
2023/03/23 14:52:23;;;;;;;1.40;1.30;;;;;;;;;;5060627;28;20302;-72
2023/03/23 14:54:51;;;;;;;1.73;1.23;;;;;;;;;;5066927;28;20251;-72
2023/03/23 14:57:18;;;;;;;1.13;1.03;;;;;;;;;;5067414;28;20227;-72
2023/03/23 14:59:45;;;;;;;1.10;1.00;;;;;;;;;;5063153;28;20208;-73
2023/03/23 15:02:13;;;;;;;1.77;1.17;;;;;;;;;;5060442;28;20277;-72
2023/03/23 15:04:39;;;;;;;0.97;0.90;;;;;;;;;;5067670;28;20274;-73
2023/03/23 15:07:07;;;;;;;1.43;1.00;;;;;;;;;;5062929;28;20599;-73